sensor_id;sensor_type;location;lat;lon;timestamp;temperature;humidity
39525;DHT22;25203;50.754;6.978;2024-02-21T00:01:17;8.80;99.90
39525;DHT22;25203;50.754;6.978;2024-02-21T00:03:18;8.80;99.90
39525;DHT22;25203;50.754;6.978;2024-02-21T00:05:20;8.80;99.90
39525;DHT22;25203;50.754;6.978;2024-02-21T00:07:20;8.80;99.90
39525;DHT22;25203;50.754;6.978;2024-02-21T00:09:21;8.80;99.90
39525;DHT22;25203;50.754;6.978;2024-02-21T00:11:21;8.80;99.90
39525;DHT22;25203;50.754;6.978;2024-02-21T00:13:22;8.80;99.90
39525;DHT22;25203;50.754;6.978;2024-02-21T00:15:23;8.80;99.90
39525;DHT22;25203;50.754;6.978;2024-02-21T00:17:23;8.80;99.90
39525;DHT22;25203;50.754;6.978;2024-02-21T00:19:26;8.80;99.90
39525;DHT22;25203;50.754;6.978;2024-02-21T00:21:27;8.80;99.90
39525;DHT22;25203;50.754;6.978;2024-02-21T00:23:27;8.80;99.90
39525;DHT22;25203;50.754;6.978;2024-02-21T00:25:29;8.80;99.90
39525;DHT22;25203;50.754;6.978;2024-02-21T00:27:29;8.80;99.90
39525;DHT22;25203;50.754;6.978;2024-02-21T00:29:30;8.80;99.90
39525;DHT22;25203;50.754;6.978;2024-02-21T00:31:30;8.80;99.90
39525;DHT22;25203;50.754;6.978;2024-02-21T00:33:31;8.80;99.90
39525;DHT22;25203;50.754;6.978;2024-02-21T00:35:32;8.80;99.90
39525;DHT22;25203;50.754;6.978;2024-02-21T00:37:32;8.80;99.90
39525;DHT22;25203;50.754;6.978;2024-02-21T00:39:33;8.80;99.90
39525;DHT22;25203;50.754;6.978;2024-02-21T00:41:33;8.80;99.90
39525;DHT22;25203;50.754;6.978;2024-02-21T00:43:34;8.80;99.90
39525;DHT22;25203;50.754;6.978;2024-02-21T00:45:34;8.80;99.90
39525;DHT22;25203;50.754;6.978;2024-02-21T00:47:35;8.80;99.90
39525;DHT22;25203;50.754;6.978;2024-02-21T00:49:35;8.80;99.90
39525;DHT22;25203;50.754;6.978;2024-02-21T00:51:36;8.80;99.90
39525;DHT22;25203;50.754;6.978;2024-02-21T00:53:37;8.70;99.90
39525;DHT22;25203;50.754;6.978;2024-02-21T00:55:38;8.80;99.90
39525;DHT22;25203;50.754;6.978;2024-02-21T00:57:40;8.70;99.90
39525;DHT22;25203;50.754;6.978;2024-02-21T00:59:41;8.70;99.90
39525;DHT22;25203;50.754;6.978;2024-02-21T01:01:42;8.70;99.90
39525;DHT22;25203;50.754;6.978;2024-02-21T01:03:43;8.70;99.90
39525;DHT22;25203;50.754;6.978;2024-02-21T01:05:43;8.60;99.90
39525;DHT22;25203;50.754;6.978;2024-02-21T01:07:44;8.70;99.90
39525;DHT22;25203;50.754;6.978;2024-02-21T01:09:44;8.70;99.90
39525;DHT22;25203;50.754;6.978;2024-02-21T01:11:45;8.60;99.90
39525;DHT22;25203;50.754;6.978;2024-02-21T01:13:46;8.60;99.90
39525;DHT22;25203;50.754;6.978;2024-02-21T01:15:46;8.60;99.90
39525;DHT22;25203;50.754;6.978;2024-02-21T01:17:47;8.60;99.90
39525;DHT22;25203;50.754;6.978;2024-02-21T01:19:48;8.60;99.90
39525;DHT22;25203;50.754;6.978;2024-02-21T01:21:48;8.60;99.90
39525;DHT22;25203;50.754;6.978;2024-02-21T01:23:49;8.60;99.90
39525;DHT22;25203;50.754;6.978;2024-02-21T01:25:50;8.60;99.90
39525;DHT22;25203;50.754;6.978;2024-02-21T01:27:50;8.60;99.90
39525;DHT22;25203;50.754;6.978;2024-02-21T01:29:52;8.60;99.90
39525;DHT22;25203;50.754;6.978;2024-02-21T01:31:53;8.50;99.90
39525;DHT22;25203;50.754;6.978;2024-02-21T01:33:54;8.60;99.90
39525;DHT22;25203;50.754;6.978;2024-02-21T01:35:54;8.60;99.90
39525;DHT22;25203;50.754;6.978;2024-02-21T01:37:55;8.50;99.90
39525;DHT22;25203;50.754;6.978;2024-02-21T01:39:56;8.60;99.90
39525;DHT22;25203;50.754;6.978;2024-02-21T01:41:57;8.50;99.90
39525;DHT22;25203;50.754;6.978;2024-02-21T01:43:57;8.50;99.90
39525;DHT22;25203;50.754;6.978;2024-02-21T01:45:58;8.50;99.90
39525;DHT22;25203;50.754;6.978;2024-02-21T01:47:59;8.40;99.90
39525;DHT22;25203;50.754;6.978;2024-02-21T01:50:00;8.40;99.90
39525;DHT22;25203;50.754;6.978;2024-02-21T01:52:02;8.40;99.90
39525;DHT22;25203;50.754;6.978;2024-02-21T01:54:03;8.40;99.90
39525;DHT22;25203;50.754;6.978;2024-02-21T01:56:05;8.30;99.90
39525;DHT22;25203;50.754;6.978;2024-02-21T01:58:06;8.40;99.90
39525;DHT22;25203;50.754;6.978;2024-02-21T02:00:07;8.40;99.90
39525;DHT22;25203;50.754;6.978;2024-02-21T02:02:09;8.40;99.90
39525;DHT22;25203;50.754;6.978;2024-02-21T02:04:11;8.40;99.90
39525;DHT22;25203;50.754;6.978;2024-02-21T02:06:11;8.40;99.90
39525;DHT22;25203;50.754;6.978;2024-02-21T02:08:17;8.40;99.90
39525;DHT22;25203;50.754;6.978;2024-02-21T02:10:18;8.50;99.90
39525;DHT22;25203;50.754;6.978;2024-02-21T02:12:18;8.50;99.90
39525;DHT22;25203;50.754;6.978;2024-02-21T02:14:19;8.50;99.90
39525;DHT22;25203;50.754;6.978;2024-02-21T02:16:20;8.50;99.90
39525;DHT22;25203;50.754;6.978;2024-02-21T02:18:20;8.50;99.90
39525;DHT22;25203;50.754;6.978;2024-02-21T02:20:21;8.50;99.90
39525;DHT22;25203;50.754;6.978;2024-02-21T02:22:28;8.60;99.90
39525;DHT22;25203;50.754;6.978;2024-02-21T02:24:29;8.60;99.90
39525;DHT22;25203;50.754;6.978;2024-02-21T02:26:29;8.60;99.90
39525;DHT22;25203;50.754;6.978;2024-02-21T02:28:30;8.60;99.90
39525;DHT22;25203;50.754;6.978;2024-02-21T02:30:37;8.60;99.90
39525;DHT22;25203;50.754;6.978;2024-02-21T02:32:37;8.60;99.90
39525;DHT22;25203;50.754;6.978;2024-02-21T02:34:38;8.60;99.90
39525;DHT22;25203;50.754;6.978;2024-02-21T02:36:38;8.60;99.90
39525;DHT22;25203;50.754;6.978;2024-02-21T02:38:39;8.50;99.90
39525;DHT22;25203;50.754;6.978;2024-02-21T02:40:40;8.60;99.90
39525;DHT22;25203;50.754;6.978;2024-02-21T02:42:41;8.60;99.90
39525;DHT22;25203;50.754;6.978;2024-02-21T02:44:41;8.60;99.90
39525;DHT22;25203;50.754;6.978;2024-02-21T02:46:42;8.50;99.90
39525;DHT22;25203;50.754;6.978;2024-02-21T02:48:43;8.50;99.90
39525;DHT22;25203;50.754;6.978;2024-02-21T02:50:45;8.50;99.90
39525;DHT22;25203;50.754;6.978;2024-02-21T02:52:46;8.50;99.90
39525;DHT22;25203;50.754;6.978;2024-02-21T02:54:47;8.50;99.90
39525;DHT22;25203;50.754;6.978;2024-02-21T02:56:52;8.40;99.90
39525;DHT22;25203;50.754;6.978;2024-02-21T02:58:52;8.40;99.90
39525;DHT22;25203;50.754;6.978;2024-02-21T03:00:53;8.40;99.90
39525;DHT22;25203;50.754;6.978;2024-02-21T03:02:54;8.40;99.90
39525;DHT22;25203;50.754;6.978;2024-02-21T03:04:54;8.40;99.90
39525;DHT22;25203;50.754;6.978;2024-02-21T03:06:55;8.40;99.90
39525;DHT22;25203;50.754;6.978;2024-02-21T03:08:55;8.40;99.90
39525;DHT22;25203;50.754;6.978;2024-02-21T03:10:56;8.40;99.90
39525;DHT22;25203;50.754;6.978;2024-02-21T03:12:57;8.40;99.90
39525;DHT22;25203;50.754;6.978;2024-02-21T03:14:57;8.40;99.90
39525;DHT22;25203;50.754;6.978;2024-02-21T03:16:58;8.40;99.90
39525;DHT22;25203;50.754;6.978;2024-02-21T03:18:59;8.50;99.90
39525;DHT22;25203;50.754;6.978;2024-02-21T03:21:00;8.50;99.90
39525;DHT22;25203;50.754;6.978;2024-02-21T03:23:00;8.40;99.90
39525;DHT22;25203;50.754;6.978;2024-02-21T03:25:01;8.40;99.90
39525;DHT22;25203;50.754;6.978;2024-02-21T03:27:01;8.40;99.90
39525;DHT22;25203;50.754;6.978;2024-02-21T03:29:03;8.30;99.90
39525;DHT22;25203;50.754;6.978;2024-02-21T03:31:04;8.30;99.90
39525;DHT22;25203;50.754;6.978;2024-02-21T03:33:05;8.20;99.90
39525;DHT22;25203;50.754;6.978;2024-02-21T03:35:05;8.20;99.90
39525;DHT22;25203;50.754;6.978;2024-02-21T03:37:06;8.10;99.90
39525;DHT22;25203;50.754;6.978;2024-02-21T03:39:07;8.00;99.90
39525;DHT22;25203;50.754;6.978;2024-02-21T03:41:09;7.90;99.90
39525;DHT22;25203;50.754;6.978;2024-02-21T03:43:10;7.80;99.90
39525;DHT22;25203;50.754;6.978;2024-02-21T03:45:10;7.70;99.90
39525;DHT22;25203;50.754;6.978;2024-02-21T03:47:11;7.60;99.90
39525;DHT22;25203;50.754;6.978;2024-02-21T03:49:11;7.60;99.90
39525;DHT22;25203;50.754;6.978;2024-02-21T03:51:12;7.60;99.90
39525;DHT22;25203;50.754;6.978;2024-02-21T03:53:13;7.60;99.90
39525;DHT22;25203;50.754;6.978;2024-02-21T03:55:13;7.60;99.90
39525;DHT22;25203;50.754;6.978;2024-02-21T03:57:14;7.50;99.90
39525;DHT22;25203;50.754;6.978;2024-02-21T03:59:15;7.50;99.90
39525;DHT22;25203;50.754;6.978;2024-02-21T04:01:16;7.50;99.90
39525;DHT22;25203;50.754;6.978;2024-02-21T04:03:16;7.60;99.90
39525;DHT22;25203;50.754;6.978;2024-02-21T04:05:17;7.50;99.90
39525;DHT22;25203;50.754;6.978;2024-02-21T04:07:18;7.50;99.90
39525;DHT22;25203;50.754;6.978;2024-02-21T04:09:18;7.50;99.90
39525;DHT22;25203;50.754;6.978;2024-02-21T04:11:19;7.40;99.90
39525;DHT22;25203;50.754;6.978;2024-02-21T04:13:20;7.40;99.90
39525;DHT22;25203;50.754;6.978;2024-02-21T04:15:20;7.40;99.90
39525;DHT22;25203;50.754;6.978;2024-02-21T04:17:21;7.50;99.90
39525;DHT22;25203;50.754;6.978;2024-02-21T04:19:21;7.50;99.90
39525;DHT22;25203;50.754;6.978;2024-02-21T04:21:22;7.60;99.90
39525;DHT22;25203;50.754;6.978;2024-02-21T04:23:22;7.70;99.90
39525;DHT22;25203;50.754;6.978;2024-02-21T04:25:23;7.80;99.90
39525;DHT22;25203;50.754;6.978;2024-02-21T04:27:24;7.80;99.90
39525;DHT22;25203;50.754;6.978;2024-02-21T04:29:24;7.90;99.90
39525;DHT22;25203;50.754;6.978;2024-02-21T04:31:25;7.90;99.90
39525;DHT22;25203;50.754;6.978;2024-02-21T04:33:26;8.00;99.90
39525;DHT22;25203;50.754;6.978;2024-02-21T04:35:26;8.00;99.90
39525;DHT22;25203;50.754;6.978;2024-02-21T04:37:27;8.10;99.90
39525;DHT22;25203;50.754;6.978;2024-02-21T04:39:27;8.10;99.90
39525;DHT22;25203;50.754;6.978;2024-02-21T04:41:28;8.10;99.90
39525;DHT22;25203;50.754;6.978;2024-02-21T04:43:29;8.20;99.90
39525;DHT22;25203;50.754;6.978;2024-02-21T04:45:29;8.20;99.90
39525;DHT22;25203;50.754;6.978;2024-02-21T04:47:30;8.30;99.90
39525;DHT22;25203;50.754;6.978;2024-02-21T04:49:30;8.30;99.90
39525;DHT22;25203;50.754;6.978;2024-02-21T04:51:31;8.30;99.90
39525;DHT22;25203;50.754;6.978;2024-02-21T04:53:32;8.30;99.90
39525;DHT22;25203;50.754;6.978;2024-02-21T04:55:32;8.30;99.90
39525;DHT22;25203;50.754;6.978;2024-02-21T04:57:33;8.20;99.90
39525;DHT22;25203;50.754;6.978;2024-02-21T04:59:33;8.20;99.90
39525;DHT22;25203;50.754;6.978;2024-02-21T05:01:35;8.30;99.90
39525;DHT22;25203;50.754;6.978;2024-02-21T05:03:36;8.30;99.90
39525;DHT22;25203;50.754;6.978;2024-02-21T05:05:36;8.30;99.90
39525;DHT22;25203;50.754;6.978;2024-02-21T05:07:37;8.40;99.90
39525;DHT22;25203;50.754;6.978;2024-02-21T05:09:37;8.40;99.90
39525;DHT22;25203;50.754;6.978;2024-02-21T05:11:38;8.40;99.90
39525;DHT22;25203;50.754;6.978;2024-02-21T05:13:39;8.40;99.90
39525;DHT22;25203;50.754;6.978;2024-02-21T05:15:39;8.40;99.90
39525;DHT22;25203;50.754;6.978;2024-02-21T05:17:40;8.40;99.90
39525;DHT22;25203;50.754;6.978;2024-02-21T05:19:41;8.40;99.90
39525;DHT22;25203;50.754;6.978;2024-02-21T05:21:41;8.40;99.90
39525;DHT22;25203;50.754;6.978;2024-02-21T05:23:42;8.40;99.90
39525;DHT22;25203;50.754;6.978;2024-02-21T05:25:42;8.50;99.90
39525;DHT22;25203;50.754;6.978;2024-02-21T05:27:43;8.50;99.90
39525;DHT22;25203;50.754;6.978;2024-02-21T05:29:44;8.50;99.90
39525;DHT22;25203;50.754;6.978;2024-02-21T05:33:51;8.50;99.90
39525;DHT22;25203;50.754;6.978;2024-02-21T05:35:52;8.50;99.90
39525;DHT22;25203;50.754;6.978;2024-02-21T05:37:52;8.50;99.90
39525;DHT22;25203;50.754;6.978;2024-02-21T05:39:53;8.60;99.90
39525;DHT22;25203;50.754;6.978;2024-02-21T05:41:54;8.50;99.90
39525;DHT22;25203;50.754;6.978;2024-02-21T05:43:54;8.50;99.90
39525;DHT22;25203;50.754;6.978;2024-02-21T05:45:55;8.50;99.90
39525;DHT22;25203;50.754;6.978;2024-02-21T05:47:55;8.40;99.90
39525;DHT22;25203;50.754;6.978;2024-02-21T05:49:57;8.40;99.90
39525;DHT22;25203;50.754;6.978;2024-02-21T05:51:58;8.40;99.90
39525;DHT22;25203;50.754;6.978;2024-02-21T05:53:58;8.40;99.90
39525;DHT22;25203;50.754;6.978;2024-02-21T05:55:59;8.40;99.90
39525;DHT22;25203;50.754;6.978;2024-02-21T05:58:00;8.40;99.90
39525;DHT22;25203;50.754;6.978;2024-02-21T06:00:02;8.40;99.90
39525;DHT22;25203;50.754;6.978;2024-02-21T06:02:03;8.40;99.90
39525;DHT22;25203;50.754;6.978;2024-02-21T06:04:04;8.40;99.90
39525;DHT22;25203;50.754;6.978;2024-02-21T06:06:05;8.30;99.90
39525;DHT22;25203;50.754;6.978;2024-02-21T06:08:06;8.40;99.90
39525;DHT22;25203;50.754;6.978;2024-02-21T06:10:07;8.40;99.90
39525;DHT22;25203;50.754;6.978;2024-02-21T06:12:08;8.40;99.90
39525;DHT22;25203;50.754;6.978;2024-02-21T06:14:08;8.40;99.90
39525;DHT22;25203;50.754;6.978;2024-02-21T06:16:09;8.40;99.90
39525;DHT22;25203;50.754;6.978;2024-02-21T06:18:09;8.40;99.90
39525;DHT22;25203;50.754;6.978;2024-02-21T06:20:10;8.40;99.90
39525;DHT22;25203;50.754;6.978;2024-02-21T06:22:11;8.40;99.90
39525;DHT22;25203;50.754;6.978;2024-02-21T06:24:12;8.40;99.90
39525;DHT22;25203;50.754;6.978;2024-02-21T06:26:12;8.40;99.90
39525;DHT22;25203;50.754;6.978;2024-02-21T06:28:13;8.40;99.90
39525;DHT22;25203;50.754;6.978;2024-02-21T06:30:14;8.40;99.90
39525;DHT22;25203;50.754;6.978;2024-02-21T06:32:14;8.40;99.90
39525;DHT22;25203;50.754;6.978;2024-02-21T06:34:15;8.40;99.90
39525;DHT22;25203;50.754;6.978;2024-02-21T06:36:16;8.40;99.90
39525;DHT22;25203;50.754;6.978;2024-02-21T06:38:16;8.40;99.90
39525;DHT22;25203;50.754;6.978;2024-02-21T06:40:22;8.30;99.90
39525;DHT22;25203;50.754;6.978;2024-02-21T06:42:26;8.30;99.90
39525;DHT22;25203;50.754;6.978;2024-02-21T06:44:27;8.30;99.90
39525;DHT22;25203;50.754;6.978;2024-02-21T06:46:29;8.20;99.90
39525;DHT22;25203;50.754;6.978;2024-02-21T06:48:30;8.20;99.90
39525;DHT22;25203;50.754;6.978;2024-02-21T06:50:30;8.10;99.90
39525;DHT22;25203;50.754;6.978;2024-02-21T06:52:31;8.10;99.90
39525;DHT22;25203;50.754;6.978;2024-02-21T06:54:31;8.10;99.90
39525;DHT22;25203;50.754;6.978;2024-02-21T06:56:32;8.10;99.90
39525;DHT22;25203;50.754;6.978;2024-02-21T06:58:33;8.20;99.90
39525;DHT22;25203;50.754;6.978;2024-02-21T07:00:33;8.20;99.90
39525;DHT22;25203;50.754;6.978;2024-02-21T07:02:34;8.30;99.90
39525;DHT22;25203;50.754;6.978;2024-02-21T07:04:35;8.30;99.90
39525;DHT22;25203;50.754;6.978;2024-02-21T07:06:35;8.30;99.90
39525;DHT22;25203;50.754;6.978;2024-02-21T07:08:36;8.30;99.90
39525;DHT22;25203;50.754;6.978;2024-02-21T07:10:37;8.40;99.90
39525;DHT22;25203;50.754;6.978;2024-02-21T07:12:38;8.30;99.90
39525;DHT22;25203;50.754;6.978;2024-02-21T07:14:42;8.30;99.90
39525;DHT22;25203;50.754;6.978;2024-02-21T07:16:42;8.30;99.90
39525;DHT22;25203;50.754;6.978;2024-02-21T07:18:43;8.40;99.90
39525;DHT22;25203;50.754;6.978;2024-02-21T07:20:44;8.40;99.90
39525;DHT22;25203;50.754;6.978;2024-02-21T07:22:44;8.40;99.90
39525;DHT22;25203;50.754;6.978;2024-02-21T07:24:45;8.40;99.90
39525;DHT22;25203;50.754;6.978;2024-02-21T07:26:45;8.50;99.90
39525;DHT22;25203;50.754;6.978;2024-02-21T07:28:46;8.50;99.90
39525;DHT22;25203;50.754;6.978;2024-02-21T07:30:46;8.50;99.90
39525;DHT22;25203;50.754;6.978;2024-02-21T07:32:49;8.50;99.90
39525;DHT22;25203;50.754;6.978;2024-02-21T07:34:51;8.50;99.90
39525;DHT22;25203;50.754;6.978;2024-02-21T07:36:51;8.50;99.90
39525;DHT22;25203;50.754;6.978;2024-02-21T07:38:52;8.50;99.90
39525;DHT22;25203;50.754;6.978;2024-02-21T07:40:52;8.50;99.90
39525;DHT22;25203;50.754;6.978;2024-02-21T07:42:53;8.50;99.90
39525;DHT22;25203;50.754;6.978;2024-02-21T07:44:53;8.50;99.90
39525;DHT22;25203;50.754;6.978;2024-02-21T07:46:54;8.50;99.90
39525;DHT22;25203;50.754;6.978;2024-02-21T07:48:54;8.50;99.90
39525;DHT22;25203;50.754;6.978;2024-02-21T07:50:55;8.50;99.90
39525;DHT22;25203;50.754;6.978;2024-02-21T07:52:56;8.60;99.90
39525;DHT22;25203;50.754;6.978;2024-02-21T07:54:56;8.60;99.90
39525;DHT22;25203;50.754;6.978;2024-02-21T07:56:57;8.60;99.90
39525;DHT22;25203;50.754;6.978;2024-02-21T07:58:57;8.70;99.90
39525;DHT22;25203;50.754;6.978;2024-02-21T08:00:58;8.70;99.90
39525;DHT22;25203;50.754;6.978;2024-02-21T08:02:58;8.70;99.90
39525;DHT22;25203;50.754;6.978;2024-02-21T08:04:59;8.70;99.90
39525;DHT22;25203;50.754;6.978;2024-02-21T08:07:00;8.70;99.90
39525;DHT22;25203;50.754;6.978;2024-02-21T08:09:03;8.80;99.90
39525;DHT22;25203;50.754;6.978;2024-02-21T08:11:03;8.80;99.90
39525;DHT22;25203;50.754;6.978;2024-02-21T08:13:04;8.90;99.90
39525;DHT22;25203;50.754;6.978;2024-02-21T08:15:05;8.90;99.90
39525;DHT22;25203;50.754;6.978;2024-02-21T08:17:05;8.90;99.90
39525;DHT22;25203;50.754;6.978;2024-02-21T08:19:06;9.00;99.90
39525;DHT22;25203;50.754;6.978;2024-02-21T08:21:07;9.00;99.90
39525;DHT22;25203;50.754;6.978;2024-02-21T08:23:07;9.10;99.90
39525;DHT22;25203;50.754;6.978;2024-02-21T08:25:08;9.10;99.90
39525;DHT22;25203;50.754;6.978;2024-02-21T08:27:08;9.10;99.90
39525;DHT22;25203;50.754;6.978;2024-02-21T08:29:09;9.20;99.90
39525;DHT22;25203;50.754;6.978;2024-02-21T08:31:10;9.20;99.90
39525;DHT22;25203;50.754;6.978;2024-02-21T08:33:10;9.20;99.90
39525;DHT22;25203;50.754;6.978;2024-02-21T08:35:11;9.20;99.90
39525;DHT22;25203;50.754;6.978;2024-02-21T08:37:12;9.20;99.90
39525;DHT22;25203;50.754;6.978;2024-02-21T08:39:13;9.30;99.90
39525;DHT22;25203;50.754;6.978;2024-02-21T08:41:16;9.30;99.90
39525;DHT22;25203;50.754;6.978;2024-02-21T08:43:17;9.40;99.90
39525;DHT22;25203;50.754;6.978;2024-02-21T08:45:18;9.40;99.90
39525;DHT22;25203;50.754;6.978;2024-02-21T08:47:18;9.40;99.90
39525;DHT22;25203;50.754;6.978;2024-02-21T08:49:19;9.50;99.90
39525;DHT22;25203;50.754;6.978;2024-02-21T08:51:20;9.50;99.90
39525;DHT22;25203;50.754;6.978;2024-02-21T08:53:21;9.50;99.90
39525;DHT22;25203;50.754;6.978;2024-02-21T08:55:21;9.50;99.90
39525;DHT22;25203;50.754;6.978;2024-02-21T08:57:22;9.60;99.90
39525;DHT22;25203;50.754;6.978;2024-02-21T08:59:22;9.80;99.90
39525;DHT22;25203;50.754;6.978;2024-02-21T09:01:23;10.10;99.90
39525;DHT22;25203;50.754;6.978;2024-02-21T09:03:24;10.50;99.90
39525;DHT22;25203;50.754;6.978;2024-02-21T09:05:24;10.70;99.90
39525;DHT22;25203;50.754;6.978;2024-02-21T09:07:25;10.90;99.90
39525;DHT22;25203;50.754;6.978;2024-02-21T09:09:25;11.10;99.90
39525;DHT22;25203;50.754;6.978;2024-02-21T09:11:28;11.10;99.90
39525;DHT22;25203;50.754;6.978;2024-02-21T09:13:29;11.30;99.90
39525;DHT22;25203;50.754;6.978;2024-02-21T09:15:31;11.30;99.90
39525;DHT22;25203;50.754;6.978;2024-02-21T09:17:33;11.50;99.90
39525;DHT22;25203;50.754;6.978;2024-02-21T09:19:35;11.60;99.90
39525;DHT22;25203;50.754;6.978;2024-02-21T09:21:35;11.70;99.90
39525;DHT22;25203;50.754;6.978;2024-02-21T09:23:36;11.70;99.90
39525;DHT22;25203;50.754;6.978;2024-02-21T09:25:36;11.40;99.90
39525;DHT22;25203;50.754;6.978;2024-02-21T09:27:38;11.30;99.90
39525;DHT22;25203;50.754;6.978;2024-02-21T09:29:39;11.20;99.90
39525;DHT22;25203;50.754;6.978;2024-02-21T09:31:39;11.10;99.90
39525;DHT22;25203;50.754;6.978;2024-02-21T09:33:40;10.90;99.90
39525;DHT22;25203;50.754;6.978;2024-02-21T09:35:41;10.90;99.90
39525;DHT22;25203;50.754;6.978;2024-02-21T09:37:42;10.70;99.90
39525;DHT22;25203;50.754;6.978;2024-02-21T09:39:42;10.60;99.90
39525;DHT22;25203;50.754;6.978;2024-02-21T09:41:47;10.60;99.90
39525;DHT22;25203;50.754;6.978;2024-02-21T09:43:50;10.80;99.90
39525;DHT22;25203;50.754;6.978;2024-02-21T09:45:54;11.00;99.90
39525;DHT22;25203;50.754;6.978;2024-02-21T09:50:09;11.40;99.90
39525;DHT22;25203;50.754;6.978;2024-02-21T09:52:12;11.40;99.90
39525;DHT22;25203;50.754;6.978;2024-02-21T09:54:14;11.30;99.90
39525;DHT22;25203;50.754;6.978;2024-02-21T09:56:15;11.20;99.90
39525;DHT22;25203;50.754;6.978;2024-02-21T09:58:15;11.10;99.90
39525;DHT22;25203;50.754;6.978;2024-02-21T10:00:16;11.30;99.90
39525;DHT22;25203;50.754;6.978;2024-02-21T10:02:22;11.50;99.90
39525;DHT22;25203;50.754;6.978;2024-02-21T10:04:23;11.60;99.90
39525;DHT22;25203;50.754;6.978;2024-02-21T10:06:24;11.70;99.90
39525;DHT22;25203;50.754;6.978;2024-02-21T10:08:24;11.90;99.90
39525;DHT22;25203;50.754;6.978;2024-02-21T10:10:25;11.90;99.90
39525;DHT22;25203;50.754;6.978;2024-02-21T10:12:27;11.90;99.90
39525;DHT22;25203;50.754;6.978;2024-02-21T10:14:28;11.80;99.60
39525;DHT22;25203;50.754;6.978;2024-02-21T10:16:28;11.80;99.40
39525;DHT22;25203;50.754;6.978;2024-02-21T10:18:29;11.70;99.70
39525;DHT22;25203;50.754;6.978;2024-02-21T10:20:30;11.70;99.90
39525;DHT22;25203;50.754;6.978;2024-02-21T10:22:30;11.50;99.90
39525;DHT22;25203;50.754;6.978;2024-02-21T10:24:37;11.40;99.90
39525;DHT22;25203;50.754;6.978;2024-02-21T10:26:43;11.40;99.90
39525;DHT22;25203;50.754;6.978;2024-02-21T10:28:44;11.50;99.90
39525;DHT22;25203;50.754;6.978;2024-02-21T10:30:52;11.60;99.90
39525;DHT22;25203;50.754;6.978;2024-02-21T10:32:53;11.90;99.90
39525;DHT22;25203;50.754;6.978;2024-02-21T10:35:02;12.10;99.40
39525;DHT22;25203;50.754;6.978;2024-02-21T10:37:09;12.30;99.30
39525;DHT22;25203;50.754;6.978;2024-02-21T10:39:10;12.10;98.60
39525;DHT22;25203;50.754;6.978;2024-02-21T10:41:13;12.20;99.20
39525;DHT22;25203;50.754;6.978;2024-02-21T10:43:16;12.30;99.10
39525;DHT22;25203;50.754;6.978;2024-02-21T10:45:19;12.40;99.10
39525;DHT22;25203;50.754;6.978;2024-02-21T10:47:23;12.40;99.20
39525;DHT22;25203;50.754;6.978;2024-02-21T10:49:25;12.30;98.80
39525;DHT22;25203;50.754;6.978;2024-02-21T10:51:30;12.30;98.70
39525;DHT22;25203;50.754;6.978;2024-02-21T10:55:45;12.00;98.90
39525;DHT22;25203;50.754;6.978;2024-02-21T10:57:50;12.00;99.90
39525;DHT22;25203;50.754;6.978;2024-02-21T10:59:50;11.90;99.60
39525;DHT22;25203;50.754;6.978;2024-02-21T11:01:51;11.90;99.60
39525;DHT22;25203;50.754;6.978;2024-02-21T11:03:54;12.10;99.80
39525;DHT22;25203;50.754;6.978;2024-02-21T11:05:55;12.30;99.00
39525;DHT22;25203;50.754;6.978;2024-02-21T11:07:56;12.50;99.00
39525;DHT22;25203;50.754;6.978;2024-02-21T11:09:58;12.70;98.90
39525;DHT22;25203;50.754;6.978;2024-02-21T11:12:03;12.50;98.10
39525;DHT22;25203;50.754;6.978;2024-02-21T11:14:17;12.30;98.40
39525;DHT22;25203;50.754;6.978;2024-02-21T11:16:22;12.20;98.50
39525;DHT22;25203;50.754;6.978;2024-02-21T11:18:24;12.20;98.70
39525;DHT22;25203;50.754;6.978;2024-02-21T11:20:37;12.10;99.40
39525;DHT22;25203;50.754;6.978;2024-02-21T11:22:42;12.20;99.20
39525;DHT22;25203;50.754;6.978;2024-02-21T11:24:43;12.40;98.70
39525;DHT22;25203;50.754;6.978;2024-02-21T11:26:49;12.50;98.60
39525;DHT22;25203;50.754;6.978;2024-02-21T11:28:59;12.40;99.00
39525;DHT22;25203;50.754;6.978;2024-02-21T11:31:08;12.30;99.20
39525;DHT22;25203;50.754;6.978;2024-02-21T11:33:09;12.20;98.40
39525;DHT22;25203;50.754;6.978;2024-02-21T11:35:19;12.10;99.00
39525;DHT22;25203;50.754;6.978;2024-02-21T11:37:20;12.00;98.90
39525;DHT22;25203;50.754;6.978;2024-02-21T11:39:29;11.90;99.30
39525;DHT22;25203;50.754;6.978;2024-02-21T11:41:31;11.90;99.40
39525;DHT22;25203;50.754;6.978;2024-02-21T11:43:31;11.70;99.40
39525;DHT22;25203;50.754;6.978;2024-02-21T11:45:32;11.60;99.90
39525;DHT22;25203;50.754;6.978;2024-02-21T11:47:33;11.50;99.90
39525;DHT22;25203;50.754;6.978;2024-02-21T11:49:47;11.50;99.90
39525;DHT22;25203;50.754;6.978;2024-02-21T11:51:58;11.50;99.90
39525;DHT22;25203;50.754;6.978;2024-02-21T11:53:59;11.60;99.90
39525;DHT22;25203;50.754;6.978;2024-02-21T11:55:59;11.50;99.90
39525;DHT22;25203;50.754;6.978;2024-02-21T11:58:00;11.50;99.90
39525;DHT22;25203;50.754;6.978;2024-02-21T12:00:16;11.40;99.90
39525;DHT22;25203;50.754;6.978;2024-02-21T12:02:18;11.30;99.90
39525;DHT22;25203;50.754;6.978;2024-02-21T12:04:20;11.20;99.90
39525;DHT22;25203;50.754;6.978;2024-02-21T12:06:21;11.10;99.90
39525;DHT22;25203;50.754;6.978;2024-02-21T12:08:22;11.10;99.90
39525;DHT22;25203;50.754;6.978;2024-02-21T12:10:24;11.10;99.90
39525;DHT22;25203;50.754;6.978;2024-02-21T12:12:26;11.10;99.90
39525;DHT22;25203;50.754;6.978;2024-02-21T12:14:30;11.10;99.90
39525;DHT22;25203;50.754;6.978;2024-02-21T12:16:32;11.00;99.90
39525;DHT22;25203;50.754;6.978;2024-02-21T12:18:33;11.10;99.90
39525;DHT22;25203;50.754;6.978;2024-02-21T12:20:35;11.10;99.90
39525;DHT22;25203;50.754;6.978;2024-02-21T12:22:39;11.10;99.90
39525;DHT22;25203;50.754;6.978;2024-02-21T12:24:42;11.10;99.90
39525;DHT22;25203;50.754;6.978;2024-02-21T12:26:47;11.10;99.90
39525;DHT22;25203;50.754;6.978;2024-02-21T12:28:48;11.20;99.90
39525;DHT22;25203;50.754;6.978;2024-02-21T12:30:48;11.10;99.90
39525;DHT22;25203;50.754;6.978;2024-02-21T12:32:49;11.10;99.90
39525;DHT22;25203;50.754;6.978;2024-02-21T12:34:50;11.20;99.90
39525;DHT22;25203;50.754;6.978;2024-02-21T12:36:50;11.20;99.90
39525;DHT22;25203;50.754;6.978;2024-02-21T12:38:52;11.20;99.90
39525;DHT22;25203;50.754;6.978;2024-02-21T12:40:52;11.20;99.90
39525;DHT22;25203;50.754;6.978;2024-02-21T12:42:53;11.10;99.90
39525;DHT22;25203;50.754;6.978;2024-02-21T12:44:54;11.10;99.90
39525;DHT22;25203;50.754;6.978;2024-02-21T12:46:54;11.10;99.90
39525;DHT22;25203;50.754;6.978;2024-02-21T12:48:55;11.10;99.90
39525;DHT22;25203;50.754;6.978;2024-02-21T12:50:55;11.10;99.90
39525;DHT22;25203;50.754;6.978;2024-02-21T12:52:56;11.20;99.90
39525;DHT22;25203;50.754;6.978;2024-02-21T12:54:58;11.30;99.90
39525;DHT22;25203;50.754;6.978;2024-02-21T12:56:59;11.30;99.90
39525;DHT22;25203;50.754;6.978;2024-02-21T12:59:03;11.30;99.90
39525;DHT22;25203;50.754;6.978;2024-02-21T13:01:03;11.20;99.90
39525;DHT22;25203;50.754;6.978;2024-02-21T13:03:04;11.20;99.90